Time;durP1;ratioP1;P1;durP2;ratioP2;P2;SDS_P1;SDS_P2;PMS_P1;PMS_P2;Temp;Humidity;BMP_temperature;BMP_pressure;BME280_temperature;BME280_humidity;BME280_pressure;Samples;Min_cycle;Max_cycle;Signal;HPM_P1;HPM_P2
2021/07/10 06:02:20;;;;;;;38.88;23.77;;;;;;;19.48;95.53;100361.98;1773434;76;25606;-78
2021/07/10 06:04:47;;;;;;;31.45;22.35;;;;;;;19.51;95.32;100365.93;1762021;80;25801;-78
2021/07/10 06:07:13;;;;;;;27.85;18.32;;;;;;;19.46;94.52;100386.25;1791534;79;27388;-78
2021/07/10 06:09:40;;;;;;;21.97;17.00;;;;;;;19.33;93.01;100384.27;1791661;79;28875;-76
2021/07/10 06:12:07;;;;;;;20.15;15.55;;;;;;;19.20;92.68;100385.02;1778258;79;25699;-77
2021/07/10 06:14:34;;;;;;;18.50;12.53;;;;;;;19.11;92.74;100388.59;1776517;79;25907;-76
2021/07/10 06:17:01;;;;;;;16.60;13.15;;;;;;;19.05;92.54;100385.92;1767534;80;25782;-78
2021/07/10 06:19:28;;;;;;;15.95;11.20;;;;;;;18.97;92.37;100391.87;1759146;80;27445;-78
2021/07/10 06:21:54;;;;;;;12.85;11.22;;;;;;;18.89;92.38;100392.10;1729153;81;25884;-78
2021/07/10 06:24:21;;;;;;;13.08;9.65;;;;;;;18.78;91.86;100398.70;1740832;80;25843;-79
2021/07/10 06:26:47;;;;;;;11.18;9.80;;;;;;;18.75;92.26;100393.97;1738013;81;26029;-79
2021/07/10 06:29:14;;;;;;;11.05;9.55;;;;;;;18.70;92.38;100405.22;1772839;78;25601;-79
2021/07/10 06:31:40;;;;;;;12.45;8.85;;;;;;;18.61;92.05;100418.55;1783111;77;27396;-78
2021/07/10 06:34:09;;;;;;;11.95;9.25;;;;;;;18.56;92.03;100424.31;1781225;78;25736;-78
2021/07/10 06:36:39;;;;;;;10.38;8.00;;;;;;;18.55;92.36;100431.52;1758566;79;25402;-77
2021/07/10 06:39:07;;;;;;;10.88;8.88;;;;;;;18.54;92.12;100422.52;1769718;79;28095;-76
2021/07/10 06:41:33;;;;;;;12.75;9.40;;;;;;;18.56;93.15;100426.24;1759351;79;25909;-76
2021/07/10 06:44:01;;;;;;;12.65;8.90;;;;;;;18.66;93.83;100426.48;1722330;81;27304;-76
2021/07/10 06:46:27;;;;;;;9.65;8.63;;;;;;;18.89;95.93;100439.47;1749384;79;25857;-76
2021/07/10 06:48:53;;;;;;;10.80;8.55;;;;;;;18.99;95.25;100444.37;1734323;81;25889;-75
2021/07/10 06:51:20;;;;;;;9.60;7.30;;;;;;;19.11;94.92;100435.19;1783989;78;26119;-77
2021/07/10 06:53:47;;;;;;;9.40;7.05;;;;;;;19.20;94.26;100437.11;1781839;78;25527;-75
2021/07/10 06:56:14;;;;;;;9.68;7.10;;;;;;;19.38;94.71;100430.59;1788362;78;27294;-74
2021/07/10 06:58:41;;;;;;;7.12;6.20;;;;;;;19.52;94.17;100443.75;1788352;78;25819;-75
2021/07/10 07:01:07;;;;;;;7.55;6.20;;;;;;;19.57;93.71;100445.40;1760240;80;25645;-74
2021/07/10 07:03:34;;;;;;;7.53;5.72;;;;;;;19.49;91.00;100443.10;1764655;79;26076;-74
2021/07/10 07:06:00;;;;;;;7.62;5.80;;;;;;;19.41;91.06;100446.31;1749373;79;25885;-74
2021/07/10 07:08:27;;;;;;;8.55;5.87;;;;;;;19.41;90.06;100440.83;1747941;80;27334;-74
2021/07/10 07:10:53;;;;;;;11.55;6.90;;;;;;;19.41;91.98;100450.42;1743158;80;25503;-74
2021/07/10 07:13:20;;;;;;;7.50;6.22;;;;;;;19.43;91.29;100442.40;1744654;81;25853;-74
2021/07/10 07:15:46;;;;;;;7.53;6.58;;;;;;;19.39;90.34;100443.70;1741187;80;26067;-74
2021/07/10 07:18:15;;;;;;;7.25;6.55;;;;;;;19.36;90.72;100447.20;1768569;79;25825;-73
2021/07/10 07:20:44;;;;;;;9.73;7.78;;;;;;;19.35;90.80;100451.09;1777691;79;27441;-73
2021/07/10 07:23:12;;;;;;;10.72;7.30;;;;;;;19.36;91.47;100444.46;1768660;79;25796;-74
2021/07/10 07:25:39;;;;;;;13.38;8.48;;;;;;;19.38;92.09;100445.67;1767932;78;25731;-72
2021/07/10 07:28:07;;;;;;;9.40;8.38;;;;;;;19.35;91.23;100446.39;1744158;80;25993;-72
2021/07/10 07:30:34;;;;;;;10.13;8.50;;;;;;;19.33;91.15;100444.59;1770445;79;25919;-73
2021/07/10 07:33:01;;;;;;;9.25;8.45;;;;;;;19.31;91.14;100451.63;1779159;79;28131;-71
2021/07/10 07:35:29;;;;;;;10.55;8.08;;;;;;;19.32;91.05;100460.83;1768451;78;25681;-71
2021/07/10 07:37:56;;;;;;;10.88;7.90;;;;;;;19.27;90.47;100461.13;1741825;81;25794;-73
2021/07/10 07:40:22;;;;;;;11.88;7.92;;;;;;;19.22;90.36;100469.65;1765280;79;25971;-71
2021/07/10 07:42:49;;;;;;;8.18;7.35;;;;;;;19.19;90.44;100479.41;1779336;79;25696;-71
2021/07/10 07:45:18;;;;;;;10.82;7.65;;;;;;;19.13;89.12;100489.08;1783037;79;27240;-73
2021/07/10 07:47:45;;;;;;;10.88;7.87;;;;;;;19.04;88.56;100487.93;1719033;81;25808;-72
2021/07/10 07:50:14;;;;;;;10.28;9.28;;;;;;;18.96;89.33;100491.68;1717638;81;25753;-71
2021/07/10 07:52:40;;;;;;;9.63;8.73;;;;;;;18.91;89.54;100485.12;1715610;81;25926;-72
2021/07/10 07:55:10;;;;;;;10.85;8.95;;;;;;;18.94;89.67;100490.47;1780338;79;25908;-72
2021/07/10 07:57:37;;;;;;;;;;;;;;;18.95;90.35;100498.89;1782271;79;27311;-71
2021/07/10 08:00:08;;;;;;;10.05;9.10;;;;;;;18.98;90.96;100492.11;1778846;79;25482;-72
2021/07/10 08:02:35;;;;;;;12.73;9.70;;;;;;;19.01;91.19;100502.36;1759756;79;25877;-72
2021/07/10 08:05:02;;;;;;;11.78;9.38;;;;;;;19.00;89.86;100508.19;1769537;79;26623;-71
2021/07/10 08:07:29;;;;;;;10.70;8.78;;;;;;;18.96;89.21;100501.27;1720025;81;25792;-76
2021/07/10 08:09:56;;;;;;;10.38;8.10;;;;;;;18.91;89.21;100508.41;1772710;79;27422;-70
2021/07/10 08:12:22;;;;;;;10.38;8.43;;;;;;;18.83;88.05;100493.78;1782561;79;25799;-70
2021/07/10 08:14:49;;;;;;;10.45;8.13;;;;;;;18.77;88.42;100506.14;1740927;80;25816;-71
2021/07/10 08:17:15;;;;;;;10.78;9.28;;;;;;;18.70;88.21;100506.00;1776654;78;25919;-70
2021/07/10 08:19:43;;;;;;;9.20;8.38;;;;;;;18.64;88.40;100510.16;1771156;78;25945;-71
2021/07/10 08:22:10;;;;;;;11.18;9.13;;;;;;;18.62;88.37;100510.52;1715481;80;27215;-71
2021/07/10 08:24:37;;;;;;;11.25;9.88;;;;;;;18.61;88.69;100512.24;1759093;78;25585;-72
2021/07/10 08:27:06;;;;;;;12.50;9.68;;;;;;;18.61;88.54;100530.86;1773412;78;25812;-71
2021/07/10 08:29:33;;;;;;;11.33;10.23;;;;;;;18.65;89.49;100529.56;1769952;79;25923;-70
2021/07/10 08:32:00;;;;;;;10.68;9.73;;;;;;;18.69;90.01;100533.75;1764010;78;25732;-71
2021/07/10 08:34:26;;;;;;;9.03;8.33;;;;;;;18.72;89.95;100529.72;1772781;79;27275;-71
2021/07/10 08:36:53;;;;;;;8.93;8.23;;;;;;;18.73;89.01;100530.50;1743141;79;25894;-71
2021/07/10 08:39:20;;;;;;;10.98;9.15;;;;;;;18.75;89.31;100532.33;1777110;79;25839;-71
2021/07/10 08:41:48;;;;;;;12.15;8.68;;;;;;;18.75;89.42;100529.59;1749477;81;25914;-71
2021/07/10 08:44:15;;;;;;;9.18;8.38;;;;;;;18.78;89.32;100535.70;1727025;81;25807;-70
2021/07/10 08:46:43;;;;;;;8.30;7.50;;;;;;;18.78;89.49;100528.84;1756583;78;27572;-69
2021/07/10 08:49:14;;;;;;;9.70;6.20;;;;;;;18.84;89.41;100537.05;1772016;78;25414;-69
2021/07/10 08:51:43;;;;;;;;;;;;;;;18.86;88.88;100533.36;1772055;78;25807;-68
2021/07/10 08:54:10;;;;;;;6.50;4.85;;;;;;;18.90;88.86;100538.91;1721325;81;26125;-69
2021/07/10 08:56:37;;;;;;;5.00;4.40;;;;;;;18.86;87.55;100536.11;1769418;78;25421;-69
2021/07/10 08:59:03;;;;;;;4.30;3.90;;;;;;;18.91;87.80;100539.14;1755856;79;27391;-69
2021/07/10 09:01:30;;;;;;;5.70;3.62;;;;;;;18.92;87.48;100540.16;1778962;79;26322;-69
2021/07/10 09:03:56;;;;;;;5.55;3.47;;;;;;;19.03;88.08;100541.74;1790817;79;25452;-69
2021/07/10 09:06:23;;;;;;;7.10;3.40;;;;;;;19.09;87.09;100545.01;1781443;79;26091;-68
2021/07/10 09:08:55;;;;;;;4.75;4.10;;;;;;;19.16;86.92;100551.41;1796227;78;25814;-69
2021/07/10 09:11:23;;;;;;;4.58;3.87;;;;;;;19.29;88.19;100552.08;1781965;78;27303;-72
2021/07/10 09:13:55;;;;;;;5.67;3.80;;;;;;;19.49;87.97;100548.70;1778257;79;25775;-72
2021/07/10 09:16:34;;;;;;;5.00;4.58;;;;;;;19.80;88.54;100553.02;1776284;78;25780;-73
2021/07/10 09:19:10;;;;;;;2.87;2.72;;;;;;;20.34;92.59;100558.22;1770778;78;26616;-72
2021/07/10 09:21:52;;;;;;;2.40;2.05;;;;;;;20.73;87.85;100565.49;1775603;78;25651;-66
2021/07/10 09:24:28;;;;;;;2.60;2.40;;;;;;;21.02;86.97;100562.53;1777882;78;27310;-67
2021/07/10 09:27:04;;;;;;;3.60;2.72;;;;;;;21.37;84.93;100566.89;1777562;78;26511;-67
2021/07/10 09:29:44;;;;;;;3.65;2.52;;;;;;;21.67;83.68;100562.51;1773578;79;25939;-68
2021/07/10 09:32:23;;;;;;;3.37;2.05;;;;;;;21.78;82.15;100557.91;1769339;78;25927;-68
2021/07/10 09:34:58;;;;;;;2.17;1.87;;;;;;;22.08;81.83;100557.75;1758819;79;25480;-67
2021/07/10 09:37:32;;;;;;;4.35;1.82;;;;;;;22.26;79.59;100559.88;1768444;79;27334;-67
2021/07/10 09:40:03;;;;;;;3.75;1.40;;;;;;;22.37;79.89;100564.33;1749664;80;25486;-67
2021/07/10 09:42:36;;;;;;;3.58;1.70;;;;;;;22.71;78.87;100569.66;1768785;79;26001;-67
2021/07/10 09:45:07;;;;;;;6.37;2.35;;;;;;;22.75;78.37;100566.92;1762943;78;26486;-67
2021/07/10 09:47:36;;;;;;;4.10;2.40;;;;;;;22.89;77.94;100563.45;1716823;81;26546;-68
2021/07/10 09:50:09;;;;;;;2.33;2.15;;;;;;;23.28;79.99;100569.14;1751140;81;27527;-68
2021/07/10 09:52:39;;;;;;;2.10;1.90;;;;;;;23.70;78.81;100565.52;1745963;80;26201;-66
2021/07/10 09:55:09;;;;;;;;;;;;;;;24.05;78.80;100569.51;1752886;80;25761;-66
2021/07/10 09:57:41;;;;;;;1.98;1.52;;;;;;;24.40;75.95;100570.08;1737807;80;26637;-66
2021/07/10 10:00:19;;;;;;;2.92;1.90;;;;;;;24.60;73.72;100560.80;1754546;79;25673;-67
2021/07/10 10:02:54;;;;;;;1.17;1.15;;;;;;;24.88;74.41;100564.66;1749826;81;27317;-67
2021/07/10 10:05:28;;;;;;;2.05;1.40;;;;;;;25.19;73.15;100569.69;1750400;81;26975;-67
2021/07/10 10:07:59;;;;;;;1.50;1.20;;;;;;;25.26;67.31;100573.83;1754725;81;25869;-67
2021/07/10 10:10:36;;;;;;;2.70;1.42;;;;;;;25.15;67.24;100575.24;1736575;80;27059;-67
2021/07/10 10:13:10;;;;;;;2.22;1.45;;;;;;;25.22;67.57;100573.82;1754661;80;25468;-67
2021/07/10 10:15:56;;;;;;;2.08;1.40;;;;;;;25.24;68.18;100572.81;1742069;80;27300;-67
2021/07/10 10:18:24;;;;;;;3.12;1.45;;;;;;;25.56;69.02;100574.66;1665671;83;25967;-67
2021/07/10 10:20:56;;;;;;;1.90;1.17;;;;;;;25.71;65.92;100571.17;1709579;82;25442;-67
2021/07/10 10:23:23;;;;;;;1.45;1.30;;;;;;;25.70;64.29;100575.16;1715084;82;26421;-67
2021/07/10 10:25:50;;;;;;;4.33;1.20;;;;;;;25.65;62.86;100583.29;1713883;82;25933;-67
2021/07/10 10:28:19;;;;;;;3.00;1.20;;;;;;;25.35;62.79;100573.59;1686359;83;27173;-68
2021/07/10 10:30:49;;;;;;;2.35;1.52;;;;;;;25.16;61.77;100572.08;1682505;83;25811;-68
2021/07/10 10:33:16;;;;;;;1.40;1.30;;;;;;;24.84;62.43;100577.70;1626866;86;25907;-67
2021/07/10 10:35:44;;;;;;;1.50;1.40;;;;;;;24.59;63.44;100577.19;1663212;84;25985;-68
2021/07/10 10:38:11;;;;;;;4.50;1.60;;;;;;;24.58;64.52;100577.58;1669385;84;25937;-68
2021/07/10 10:40:38;;;;;;;1.92;1.40;;;;;;;24.63;65.41;100573.63;1668530;84;27430;-66
2021/07/10 10:43:07;;;;;;;1.87;1.42;;;;;;;24.71;65.42;100581.50;1658845;84;25524;-67
2021/07/10 10:45:38;;;;;;;2.65;1.60;;;;;;;24.69;64.19;100582.50;1695536;82;26275;-66
2021/07/10 10:48:06;;;;;;;2.70;1.50;;;;;;;24.71;65.13;100585.66;1708844;82;26126;-74
2021/07/10 10:50:40;;;;;;;1.50;1.40;;;;;;;24.94;66.17;100579.67;1654970;84;25516;-73
2021/07/10 10:53:11;;;;;;;1.30;1.20;;;;;;;25.42;65.77;100574.72;1630935;86;27382;-73
2021/07/10 10:55:39;;;;;;;3.12;1.40;;;;;;;25.52;62.14;100580.22;1716651;81;25482;-73
2021/07/10 10:58:26;;;;;;;1.85;1.55;;;;;;;25.49;62.71;100574.10;1689678;82;25881;-73
2021/07/10 11:01:06;;;;;;;2.95;1.02;;;;;;;25.81;62.03;100582.00;1725026;81;25968;-73
2021/07/10 11:03:39;;;;;;;6.53;1.77;;;;;;;26.00;60.73;100580.13;1721111;81;26636;-72
2021/07/10 11:06:28;;;;;;;3.85;0.98;;;;;;;26.11;60.31;100582.80;1749780;81;27908;-73
2021/07/10 11:08:55;;;;;;;5.25;1.10;;;;;;;26.16;58.53;100581.58;1716087;81;25578;-73
2021/07/10 11:11:26;;;;;;;3.47;1.07;;;;;;;26.18;59.49;100581.34;1712491;81;25874;-73
2021/07/10 11:14:11;;;;;;;1.47;1.15;;;;;;;26.63;59.85;100580.58;1740922;81;25943;-73
2021/07/10 11:17:07;;;;;;;1.30;1.20;;;;;;;26.64;58.91;100582.13;1695897;81;25847;-73
2021/07/10 11:19:49;;;;;;;1.92;1.17;;;;;;;26.63;58.00;100590.28;1718949;81;27401;-71
2021/07/10 11:22:54;;;;;;;2.20;1.70;;;;;;;26.49;58.35;100591.77;1779098;77;26885;-65
2021/07/10 11:25:52;;;;;;;2.30;2.02;;;;;;;26.62;59.52;100600.57;1779579;79;25416;-66
2021/07/10 11:28:22;;;;;;;1.63;1.50;;;;;;;27.20;59.38;100609.03;1779703;78;25986;-67
2021/07/10 11:30:53;;;;;;;1.98;1.40;;;;;;;27.31;57.60;100612.30;1784842;78;25416;-66
2021/07/10 11:34:03;;;;;;;1.87;1.25;;;;;;;27.16;57.01;100606.91;1779557;78;29747;-67
2021/07/10 11:36:56;;;;;;;1.40;1.30;;;;;;;27.10;56.25;100614.73;1788240;79;25793;-67
2021/07/10 11:39:32;;;;;;;3.52;1.55;;;;;;;27.16;56.26;100614.46;1779487;78;25721;-66
2021/07/10 11:42:25;;;;;;;2.15;1.37;;;;;;;27.27;56.98;100616.48;1792496;78;26803;-67
2021/07/10 11:44:59;;;;;;;1.77;1.67;;;;;;;27.40;56.22;100613.98;1737319;81;25609;-67
2021/07/10 11:47:39;;;;;;;3.10;1.82;;;;;;;27.37;56.15;100614.81;1782874;78;27433;-67
2021/07/10 11:50:16;;;;;;;11.35;1.75;;;;;;;27.74;56.43;100611.13;1782428;78;25873;-66
2021/07/10 11:52:59;;;;;;;1.12;1.12;;;;;;;28.15;55.53;100628.02;1777034;78;25435;-66
2021/07/10 11:55:28;;;;;;;1.20;1.20;;;;;;;28.13;54.49;100612.53;1782848;78;25920;-66
2021/07/10 11:57:55;;;;;;;1.50;1.17;;;;;;;28.03;52.71;100616.27;1771884;78;25874;-67
2021/07/10 12:00:25;;;;;;;1.35;1.25;;;;;;;27.80;53.10;100613.42;1777907;77;27314;-66
2021/07/10 12:02:52;;;;;;;2.00;1.30;;;;;;;27.71;52.74;100618.90;1776196;79;25594;-66
2021/07/10 12:05:23;;;;;;;1.32;1.22;;;;;;;27.56;52.92;100622.47;1760279;78;26636;-66
2021/07/10 12:07:53;;;;;;;1.35;1.30;;;;;;;27.37;52.25;100625.31;1778106;78;25963;-66
2021/07/10 12:10:38;;;;;;;2.20;1.52;;;;;;;27.12;52.67;100623.42;1774505;79;25806;-67
2021/07/10 12:13:15;;;;;;;2.40;1.20;;;;;;;26.96;53.10;100628.95;1776160;78;28039;-66
2021/07/10 12:16:04;;;;;;;1.40;1.30;;;;;;;26.80;53.16;100632.30;1780202;78;25471;-71
2021/07/10 12:18:35;;;;;;;1.50;1.40;;;;;;;26.64;53.32;100634.84;1775743;79;26160;-72
2021/07/10 12:21:13;;;;;;;3.15;1.30;;;;;;;26.42;53.04;100634.22;1723745;81;26017;-72
2021/07/10 12:23:49;;;;;;;2.05;1.50;;;;;;;26.20;52.97;100629.45;1728257;81;25799;-72
2021/07/10 12:26:19;;;;;;;1.30;1.20;;;;;;;26.13;52.69;100632.28;1783554;78;27274;-72
2021/07/10 12:28:56;;;;;;;4.28;1.40;;;;;;;25.81;53.45;100628.52;1779138;78;25791;-71
2021/07/10 12:31:30;;;;;;;2.83;1.70;;;;;;;25.75;54.19;100632.12;1770256;78;25460;-71
2021/07/10 12:33:59;;;;;;;1.70;1.60;;;;;;;25.72;53.86;100627.56;1784809;78;25922;-72
2021/07/10 12:36:37;;;;;;;2.02;1.80;;;;;;;25.96;55.21;100631.22;1781261;78;25406;-71
2021/07/10 12:39:19;;;;;;;4.28;1.87;;;;;;;26.24;53.23;100630.23;1739059;80;27957;-70
2021/07/10 12:42:07;;;;;;;4.00;1.98;;;;;;;26.19;54.04;100620.95;1759562;79;25853;-71
2021/07/10 12:44:40;;;;;;;1.85;1.75;;;;;;;26.54;53.99;100624.60;1736962;80;25744;-70
2021/07/10 12:47:16;;;;;;;1.85;1.75;;;;;;;26.67;52.29;100638.18;1763463;80;26095;-70
2021/07/10 12:49:53;;;;;;;1.70;1.60;;;;;;;26.70;52.55;100633.20;1762209;78;25364;-71
2021/07/10 12:52:45;;;;;;;2.00;1.90;;;;;;;26.84;51.18;100637.81;1732868;81;27337;-71
2021/07/10 12:55:26;;;;;;;1.82;1.72;;;;;;;26.82;51.69;100635.45;1731359;81;27401;-71
2021/07/10 12:57:56;;;;;;;2.65;1.67;;;;;;;27.00;52.00;100630.30;1736755;81;26067;-71
2021/07/10 13:00:27;;;;;;;2.27;1.80;;;;;;;27.13;51.46;100620.84;1736318;81;26731;-71
2021/07/10 13:03:03;;;;;;;1.90;1.80;;;;;;;27.11;51.13;100629.58;1730902;81;25801;-71
2021/07/10 13:05:35;;;;;;;3.00;1.92;;;;;;;26.94;50.10;100630.58;1740887;81;27388;-72
2021/07/10 13:08:24;;;;;;;1.85;1.75;;;;;;;26.47;49.24;100625.45;1703194;81;25904;-71
2021/07/10 13:11:03;;;;;;;3.27;1.90;;;;;;;26.12;50.21;100622.38;1733443;81;25381;-72
2021/07/10 13:13:40;;;;;;;1.82;1.72;;;;;;;25.81;50.27;100629.91;1730622;81;28151;-67
2021/07/10 13:16:28;;;;;;;3.08;1.85;;;;;;;25.47;50.61;100628.30;1764149;80;25901;-71
2021/07/10 13:18:58;;;;;;;2.10;2.00;;;;;;;25.26;51.68;100630.58;1771786;79;27300;-72
2021/07/10 13:21:37;;;;;;;2.10;2.00;;;;;;;25.00;51.68;100635.98;1795312;78;25455;-72
2021/07/10 13:24:09;;;;;;;2.52;1.95;;;;;;;24.69;51.75;100628.71;1799812;78;25846;-66
2021/07/10 13:26:40;;;;;;;3.55;2.15;;;;;;;24.58;52.42;100640.58;1782432;78;26020;-65
2021/07/10 13:29:17;;;;;;;2.17;2.00;;;;;;;24.42;52.63;100638.80;1784300;78;25801;-67
2021/07/10 13:32:04;;;;;;;3.62;2.08;;;;;;;24.22;52.43;100635.03;1792206;78;27362;-66
2021/07/10 13:34:24;;;;;;;1.90;1.80;;;;;;;24.09;53.12;100633.05;1768427;78;25934;-68
2021/07/10 13:36:54;;;;;;;3.03;2.30;;;;;;;24.05;53.76;100628.30;1783607;78;25794;-66
2021/07/10 13:39:27;;;;;;;1.80;1.70;;;;;;;23.99;54.03;100624.37;1775208;78;26647;-71
2021/07/10 13:42:07;;;;;;;3.17;2.20;;;;;;;24.13;54.59;100618.66;1781531;79;25790;-72
2021/07/10 13:44:39;;;;;;;3.08;1.70;;;;;;;24.25;54.31;100623.80;1699817;81;28377;-71
2021/07/10 13:47:14;;;;;;;1.80;1.70;;;;;;;24.32;54.17;100631.30;1777789;78;25528;-72
2021/07/10 13:49:48;;;;;;;2.65;1.62;;;;;;;24.28;53.94;100630.48;1782734;78;25740;-73
2021/07/10 13:52:19;;;;;;;1.98;1.82;;;;;;;24.42;54.42;100629.12;1759181;79;25968;-72
2021/07/10 13:54:56;;;;;;;1.60;1.40;;;;;;;24.62;54.50;100624.00;1776331;78;25966;-72
2021/07/10 13:57:45;;;;;;;2.37;1.67;;;;;;;24.87;53.78;100617.02;1753339;79;27361;-72
2021/07/10 14:00:19;;;;;;;1.67;1.52;;;;;;;25.20;53.58;100619.68;1764607;78;25887;-72
2021/07/10 14:02:55;;;;;;;3.10;1.62;;;;;;;25.33;52.42;100605.63;1735675;79;25535;-72
2021/07/10 14:05:38;;;;;;;1.67;1.57;;;;;;;25.39;52.84;100613.71;1770405;79;25988;-67
2021/07/10 14:08:08;;;;;;;3.05;1.57;;;;;;;25.52;51.74;100617.61;1771627;79;25938;-68
2021/07/10 14:10:43;;;;;;;3.42;1.60;;;;;;;25.40;51.26;100610.34;1779585;79;27367;-67
2021/07/10 14:13:23;;;;;;;3.35;1.62;;;;;;;25.24;50.32;100619.09;1749054;81;25684;-66
2021/07/10 14:15:53;;;;;;;1.90;1.80;;;;;;;25.14;51.66;100613.17;1751582;80;25795;-67
2021/07/10 14:18:20;;;;;;;2.00;1.90;;;;;;;25.29;52.45;100611.78;1716130;81;25856;-68
2021/07/10 14:20:50;;;;;;;2.12;2.00;;;;;;;25.43;52.32;100618.62;1742206;80;25443;-67
2021/07/10 14:23:19;;;;;;;2.40;2.20;;;;;;;25.58;51.39;100615.19;1784025;77;27344;-68
2021/07/10 14:25:47;;;;;;;3.35;1.80;;;;;;;25.52;51.02;100614.84;1783098;77;25695;-67
2021/07/10 14:28:14;;;;;;;2.22;2.12;;;;;;;25.45;50.98;100614.07;1755403;80;25799;-68
2021/07/10 14:30:42;;;;;;;1.90;1.80;;;;;;;25.52;51.51;100612.06;1766000;79;25563;-67
2021/07/10 14:33:08;;;;;;;1.82;1.70;;;;;;;25.59;51.24;100617.36;1762646;78;25472;-66
2021/07/10 14:35:35;;;;;;;1.72;1.62;;;;;;;25.72;51.06;100619.86;1787916;78;27461;-68
2021/07/10 14:38:04;;;;;;;2.95;1.70;;;;;;;25.67;50.54;100616.91;1779423;79;25870;-67
2021/07/10 14:40:33;;;;;;;;;;;;;;;25.62;50.63;100615.95;1782534;79;25766;-68
2021/07/10 14:43:03;;;;;;;2.00;1.30;;;;;;;25.65;50.84;100616.53;1767263;79;26726;-68
2021/07/10 14:45:30;;;;;;;3.40;1.50;;;;;;;25.79;51.35;100618.42;1742959;80;25710;-67
2021/07/10 14:47:58;;;;;;;2.15;1.82;;;;;;;25.85;50.67;100616.80;1730439;81;27520;-67
2021/07/10 14:50:26;;;;;;;1.82;1.72;;;;;;;25.78;50.03;100614.66;1731479;81;25799;-67
2021/07/10 14:52:54;;;;;;;1.90;1.80;;;;;;;25.61;50.00;100618.55;1721723;81;25877;-68
2021/07/10 14:55:21;;;;;;;3.22;1.90;;;;;;;25.41;49.99;100611.32;1700155;83;25985;-66
2021/07/10 14:57:50;;;;;;;1.92;1.82;;;;;;;25.37;50.36;100610.56;1720942;81;25442;-67
2021/07/10 15:00:24;;;;;;;2.37;2.27;;;;;;;25.34;50.64;100609.38;1753269;79;28060;-67
2021/07/10 15:03:12;;;;;;;2.12;2.02;;;;;;;25.31;50.66;100606.02;1741883;80;25619;-67
2021/07/10 15:05:39;;;;;;;2.60;2.40;;;;;;;25.26;50.46;100601.51;1688466;83;32446;-67
2021/07/10 15:08:06;;;;;;;3.80;2.00;;;;;;;25.17;51.16;100599.92;1696171;81;25840;-68
2021/07/10 15:10:33;;;;;;;3.33;2.20;;;;;;;25.08;50.86;100602.34;1693842;82;25847;-67
2021/07/10 15:13:00;;;;;;;3.65;2.40;;;;;;;25.00;51.26;100601.39;1689611;82;27395;-67
2021/07/10 15:15:26;;;;;;;2.50;2.30;;;;;;;24.85;50.69;100599.25;1694504;82;25543;-68
2021/07/10 15:17:54;;;;;;;2.47;2.35;;;;;;;24.70;51.17;100602.64;1690263;82;25863;-67
2021/07/10 15:20:24;;;;;;;3.85;2.17;;;;;;;24.54;51.54;100591.41;1689443;82;25980;-68
2021/07/10 15:22:53;;;;;;;4.00;2.77;;;;;;;24.48;51.58;100586.66;1722949;81;25428;-68
2021/07/10 15:25:26;;;;;;;3.87;2.95;;;;;;;24.43;52.27;100587.84;1719928;82;33820;-68
2021/07/10 15:27:55;;;;;;;2.77;2.50;;;;;;;24.44;53.01;100590.80;1705606;82;25453;-67
2021/07/10 15:30:23;;;;;;;4.00;2.50;;;;;;;24.51;52.92;100589.41;1765407;79;25821;-68
2021/07/10 15:32:51;;;;;;;3.02;2.62;;;;;;;24.55;52.59;100587.48;1778847;79;26024;-67
2021/07/10 15:35:20;;;;;;;2.60;2.40;;;;;;;24.49;52.25;100586.26;1775205;79;25661;-67
2021/07/10 15:37:51;;;;;;;2.95;2.75;;;;;;;24.42;52.10;100585.67;1778571;79;27416;-68
2021/07/10 15:40:19;;;;;;;3.02;2.60;;;;;;;24.35;52.60;100589.05;1776788;79;25616;-68
2021/07/10 15:42:46;;;;;;;4.47;2.10;;;;;;;24.24;52.40;100589.04;1784009;79;25783;-68
2021/07/10 15:45:15;;;;;;;2.30;2.10;;;;;;;24.15;52.68;100589.44;1785985;79;25924;-67
2021/07/10 15:47:43;;;;;;;3.72;2.12;;;;;;;24.01;52.24;100589.45;1783387;79;25783;-68
2021/07/10 15:50:17;;;;;;;3.20;1.95;;;;;;;23.82;52.34;100589.20;1790108;79;27323;-67
2021/07/10 15:52:45;;;;;;;5.08;3.02;;;;;;;23.74;53.11;100580.70;1781739;79;25866;-67
2021/07/10 15:55:16;;;;;;;4.75;2.55;;;;;;;23.68;53.06;100576.14;1769007;79;25557;-68
2021/07/10 15:57:43;;;;;;;3.08;2.80;;;;;;;23.61;53.39;100578.89;1779414;79;25932;-68
2021/07/10 16:00:14;;;;;;;5.17;3.40;;;;;;;23.58;53.88;100583.81;1783760;79;25818;-67
2021/07/10 16:02:41;;;;;;;4.78;3.98;;;;;;;23.52;53.71;100577.89;1768853;79;27941;-68
2021/07/10 16:05:11;;;;;;;3.50;2.72;;;;;;;23.46;53.68;100578.06;1780105;79;25798;-68
2021/07/10 16:07:38;;;;;;;3.60;3.27;;;;;;;23.42;53.94;100580.03;1775554;79;25485;-67
2021/07/10 16:10:11;;;;;;;2.45;2.25;;;;;;;23.36;53.92;100571.92;1782308;79;26488;-67
2021/07/10 16:12:39;;;;;;;2.67;2.10;;;;;;;23.34;53.98;100568.77;1778020;79;25880;-68
2021/07/10 16:15:09;;;;;;;2.25;2.12;;;;;;;23.27;54.08;100566.77;1788020;79;27913;-68
2021/07/10 16:17:36;;;;;;;2.62;2.40;;;;;;;23.22;54.37;100570.69;1785300;79;25803;-68
2021/07/10 16:20:10;;;;;;;3.08;2.80;;;;;;;23.21;54.66;100565.59;1786216;79;25924;-66
2021/07/10 16:22:37;;;;;;;3.50;3.20;;;;;;;23.19;54.71;100570.11;1780037;79;26094;-68
2021/07/10 16:25:06;;;;;;;5.90;3.17;;;;;;;23.20;54.88;100566.75;1726454;82;25880;-68
2021/07/10 16:27:32;;;;;;;;;;;;;;;23.21;54.88;100570.51;1742911;81;27389;-67
2021/07/10 16:29:59;;;;;;;2.70;2.50;;;;;;;23.21;54.57;100568.34;1742470;81;25894;-67
2021/07/10 16:32:26;;;;;;;2.10;2.00;;;;;;;23.15;54.37;100576.78;1743314;81;25890;-68
2021/07/10 16:34:52;;;;;;;2.40;2.20;;;;;;;23.09;54.61;100578.54;1742506;81;25908;-68
2021/07/10 16:37:19;;;;;;;2.62;2.42;;;;;;;23.03;54.66;100574.53;1745447;81;25652;-67
2021/07/10 16:39:45;;;;;;;2.33;2.17;;;;;;;22.98;54.84;100574.91;1742537;81;27404;-68
2021/07/10 16:42:12;;;;;;;5.05;2.45;;;;;;;22.93;55.06;100573.89;1745375;81;26397;-66
2021/07/10 16:44:39;;;;;;;2.80;2.30;;;;;;;22.87;54.91;100574.86;1745566;81;25768;-67
2021/07/10 16:47:06;;;;;;;3.95;2.15;;;;;;;22.86;55.19;100578.00;1741620;81;29728;-67
2021/07/10 16:49:33;;;;;;;3.22;2.67;;;;;;;22.83;54.87;100581.52;1666670;83;25938;-67
2021/07/10 16:52:00;;;;;;;3.33;2.08;;;;;;;22.79;55.14;100578.75;1743861;81;27351;-67
2021/07/10 16:54:28;;;;;;;1.92;1.82;;;;;;;22.77;55.13;100579.73;1695409;83;25638;-69
2021/07/10 16:56:55;;;;;;;2.90;1.98;;;;;;;22.76;55.22;100582.27;1684845;83;25861;-68
2021/07/10 16:59:21;;;;;;;2.40;2.20;;;;;;;22.73;55.56;100582.47;1708522;83;25912;-67
2021/07/10 17:01:48;;;;;;;2.55;2.30;;;;;;;22.65;55.50;100581.44;1726111;82;25451;-67
2021/07/10 17:04:14;;;;;;;3.08;1.90;;;;;;;22.55;55.55;100580.97;1724959;82;27431;-67
2021/07/10 17:06:46;;;;;;;3.42;2.40;;;;;;;22.53;55.86;100577.81;1723066;81;25822;-68
2021/07/10 17:09:13;;;;;;;2.98;2.40;;;;;;;22.50;56.20;100584.68;1723961;81;25850;-68
2021/07/10 17:11:40;;;;;;;2.12;1.85;;;;;;;22.46;56.27;100582.47;1742135;81;25962;-68
2021/07/10 17:14:06;;;;;;;6.08;2.65;;;;;;;22.45;56.43;100586.41;1775155;79;25824;-66
2021/07/10 17:16:33;;;;;;;3.37;3.08;;;;;;;22.41;56.26;100582.83;1771548;80;27322;-66
2021/07/10 17:18:59;;;;;;;2.42;1.82;;;;;;;22.40;56.46;100584.80;1754817;80;25466;-68
2021/07/10 17:21:29;;;;;;;2.30;1.90;;;;;;;22.36;55.86;100588.12;1776407;80;25582;-67
2021/07/10 17:23:56;;;;;;;3.42;1.98;;;;;;;22.35;56.03;100581.80;1777922;79;26558;-68
2021/07/10 17:26:22;;;;;;;2.52;1.90;;;;;;;22.33;55.90;100575.11;1780420;79;25802;-67
2021/07/10 17:28:49;;;;;;;7.20;2.20;;;;;;;22.30;55.94;100579.41;1780460;79;27851;-68
2021/07/10 17:31:20;;;;;;;3.35;2.30;;;;;;;22.29;55.93;100586.70;1776512;79;25430;-67
2021/07/10 17:33:46;;;;;;;4.33;2.40;;;;;;;22.23;55.87;100576.57;1778534;80;26276;-67
2021/07/10 17:36:13;;;;;;;3.62;2.17;;;;;;;22.18;55.92;100581.84;1776188;79;25944;-68
2021/07/10 17:38:40;;;;;;;2.65;2.45;;;;;;;22.16;55.80;100577.90;1770084;80;25419;-68
2021/07/10 17:41:07;;;;;;;2.47;2.30;;;;;;;22.12;55.94;100580.63;1699865;81;27518;-68
2021/07/10 17:43:34;;;;;;;2.58;2.37;;;;;;;22.09;56.02;100580.60;1715333;82;25840;-68